Portada
METAR-TAF:

METAR-TAF

Aeropuertos :

Chlef, Argelia

latitud: 36-13N, longitud: 001-20E, altitud: 143 m

Observación

El informe se hizo hace 50 minutos, a las 03:00 UTC
Viento 5 kt del noreste
Temperatura 20°C
Humedad 37%
Presión 1017 hPa
Visibilidad 10 km o más
sin nubes por debajo de 1500 m y sin presencia de cumulonimbus.

METAR: DAOI 080300Z 05005KT CAVOK 20/05 Q1017

Hora: 04:50 (03:50 UTC)

Pronóstico

El informe se hizo hace 4 horas y 50 minutos, a las 23:00 UTC
Pronóstico válido del 08 a las 00 UTC al 08 a las 24 UTC
Viento 2 kt con dirección variable
Visibilidad 10 km o más
sin nubes por debajo de 1500 m y sin presencia de cumulonimbus.
Evolucionando progresivamente
del 08 a las 12 UTC al 08 a las 15 UTC
Viento 10 kt del sur

TAF: DAOI 072300Z 0800/0824 VRB02KT CAVOK BECMG 0812/0815 17010KT

Observaciones y pronósticos meteorológicos de más de 4000 aeropuertos (mensajes METAR y TAF).

Los puntos amarillos y rojos representan las estaciones disponibles.

Ponga el ratón en el punto deseado para ver el nombre de la estación.

Haga clic para ver las observaciones y los pronósticos meteorológicos.

Para cambiar el mapa : haga clic en los botones verdes con una cruz de color negro para hacer un zoom, en el botón verde con un guión para alejar o en las flechas verdes para mapas adyacentes.


METAR-TAF: